createdAt,value
2018-10-17T00:01:52.353Z,39.63
2018-10-17T00:04:30.175Z,42.78
2018-10-17T00:07:07.729Z,44.67
2018-10-17T00:09:46.141Z,40.60
2018-10-17T00:12:24.585Z,37.95
2018-10-17T00:15:00.426Z,42.00
2018-10-17T00:17:39.331Z,40.80
2018-10-17T00:20:17.573Z,41.10
2018-10-17T00:22:55.310Z,41.67
2018-10-17T00:25:32.507Z,40.00
2018-10-17T00:28:10.360Z,41.73
2018-10-17T00:33:13.312Z,39.60
2018-10-17T00:36:05.102Z,41.80
2018-10-17T00:38:34.451Z,41.57
2018-10-17T00:41:03.871Z,40.70
2018-10-17T00:43:33.147Z,40.67
2018-10-17T00:46:02.451Z,39.97
2018-10-17T00:48:31.789Z,39.87
2018-10-17T00:51:01.173Z,40.20
2018-10-17T00:53:30.518Z,40.33
2018-10-17T00:55:59.910Z,38.73
2018-10-17T00:58:29.351Z,41.83
2018-10-17T01:00:58.710Z,36.63
2018-10-17T01:03:28.008Z,40.93
2018-10-17T01:05:57.578Z,39.63
2018-10-17T01:08:26.885Z,41.77
2018-10-17T01:10:56.235Z,39.00
2018-10-17T01:13:25.647Z,42.13
2018-10-17T01:15:54.993Z,38.63
2018-10-17T01:18:24.312Z,41.90
2018-10-17T01:20:53.710Z,41.77
2018-10-17T01:23:23.022Z,42.43
2018-10-17T01:25:52.361Z,42.13
2018-10-17T01:28:21.704Z,44.70
2018-10-17T01:30:58.241Z,43.93
2018-10-17T01:33:27.614Z,43.47
2018-10-17T01:35:57.204Z,43.87
2018-10-17T01:38:26.521Z,45.40
2018-10-17T01:40:55.871Z,43.43
2018-10-17T01:43:25.155Z,46.77
2018-10-17T01:45:54.510Z,50.53
2018-10-17T01:48:23.823Z,45.80
2018-10-17T01:50:53.125Z,44.00
2018-10-17T01:53:22.442Z,43.63
2018-10-17T01:55:51.773Z,42.03
2018-10-17T01:58:21.112Z,42.40
2018-10-17T02:00:50.453Z,43.47
2018-10-17T02:03:19.854Z,44.13
2018-10-17T02:05:49.176Z,46.47
2018-10-17T02:08:18.537Z,48.30
2018-10-17T02:10:47.909Z,44.93
2018-10-17T02:13:20.111Z,48.60
2018-10-17T02:15:50.928Z,44.10
2018-10-17T02:18:20.397Z,48.30
2018-10-17T02:20:50.136Z,46.93
2018-10-17T02:23:19.441Z,44.73
2018-10-17T02:25:48.782Z,47.20
2018-10-17T02:28:18.134Z,48.93
2018-10-17T02:30:47.445Z,45.53
2018-10-17T02:33:16.776Z,48.83
2018-10-17T02:35:46.141Z,49.97
2018-10-17T02:38:15.790Z,49.90
2018-10-17T02:40:45.109Z,48.53
2018-10-17T02:43:14.501Z,49.08
2018-10-17T02:45:43.773Z,46.27
2018-10-17T02:48:14.610Z,52.23
2018-10-17T02:50:43.922Z,42.43
2018-10-17T02:53:13.328Z,51.10
2018-10-17T02:55:42.597Z,43.90
2018-10-17T02:58:11.953Z,48.48
2018-10-17T03:00:41.254Z,45.63
2018-10-17T03:03:10.583Z,48.57
2018-10-17T03:05:39.901Z,51.60
2018-10-17T03:08:09.242Z,49.73
2018-10-17T03:10:38.559Z,49.17
2018-10-17T03:13:07.940Z,51.40
2018-10-17T03:15:37.869Z,51.60
2018-10-17T03:18:07.191Z,50.80
2018-10-17T03:20:36.547Z,52.97
2018-10-17T03:23:06.472Z,50.33
2018-10-17T03:25:35.734Z,50.93
2018-10-17T03:28:06.201Z,50.06
2018-10-17T03:30:35.421Z,50.83
2018-10-17T03:33:06.067Z,50.90
2018-10-17T03:35:35.386Z,49.95
2018-10-17T03:38:04.811Z,51.17
2018-10-17T03:40:34.131Z,38.83
2018-10-17T03:43:03.527Z,47.63
2018-10-17T03:45:32.809Z,45.10
2018-10-17T03:48:02.130Z,49.63
2018-10-17T03:50:31.446Z,50.13
2018-10-17T03:53:00.771Z,55.40
2018-10-17T03:55:30.097Z,53.77
2018-10-17T03:57:59.427Z,52.20
2018-10-17T04:00:28.750Z,53.23
2018-10-17T04:02:58.117Z,48.57
2018-10-17T04:05:27.430Z,50.25
2018-10-17T04:07:56.774Z,53.83
2018-10-17T04:10:26.122Z,53.50
2018-10-17T04:12:55.590Z,52.80
2018-10-17T04:15:25.097Z,44.73
2018-10-17T04:17:54.598Z,50.80
2018-10-17T04:20:24.054Z,50.65
2018-10-17T04:22:55.921Z,46.60
2018-10-17T04:25:25.675Z,53.75
2018-10-17T04:27:55.595Z,47.60
2018-10-17T04:30:25.543Z,54.70
2018-10-17T04:32:55.108Z,55.47
2018-10-17T04:35:24.600Z,53.83
2018-10-17T04:37:55.358Z,59.57
2018-10-17T04:40:24.895Z,51.30
2018-10-17T04:42:54.512Z,53.93
2018-10-17T04:45:24.075Z,54.73
2018-10-17T04:47:53.573Z,51.43
2018-10-17T04:50:23.159Z,56.53
2018-10-17T04:52:52.725Z,49.80
2018-10-17T04:57:55.078Z,52.93
2018-10-17T05:00:24.598Z,50.10
2018-10-17T05:02:54.191Z,52.37
2018-10-17T05:05:23.714Z,58.48
2018-10-17T05:07:53.295Z,58.20
2018-10-17T05:10:22.802Z,53.60
2018-10-17T05:12:52.290Z,60.63
2018-10-17T05:15:21.909Z,48.83
2018-10-17T05:17:51.463Z,57.03
2018-10-17T05:20:52.605Z,56.85
2018-10-17T05:23:22.068Z,56.58
2018-10-17T05:25:51.578Z,54.67
2018-10-17T05:28:20.974Z,58.27
2018-10-17T05:30:50.475Z,51.90
2018-10-17T05:33:19.883Z,60.40
2018-10-17T05:35:49.335Z,59.87
2018-10-17T05:38:18.791Z,56.30
2018-10-17T05:40:48.281Z,55.93
2018-10-17T05:43:17.714Z,59.73
2018-10-17T05:45:47.303Z,65.30
2018-10-17T05:48:16.823Z,59.93
2018-10-17T05:50:46.178Z,63.50
2018-10-17T05:53:15.590Z,63.40
2018-10-17T05:55:45.189Z,61.70
2018-10-17T05:58:14.554Z,57.83
2018-10-17T06:00:43.886Z,70.30
2018-10-17T06:03:13.279Z,68.33
2018-10-17T06:05:42.599Z,70.07
2018-10-17T06:08:11.934Z,63.03
2018-10-17T06:10:41.264Z,64.57
2018-10-17T06:13:10.642Z,69.42
2018-10-17T06:15:39.943Z,69.50
2018-10-17T06:18:09.254Z,68.00
2018-10-17T06:20:38.571Z,73.40
2018-10-17T06:23:07.899Z,67.97
2018-10-17T06:25:37.259Z,69.80
2018-10-17T06:28:06.608Z,72.13
2018-10-17T06:30:35.985Z,70.73
2018-10-17T06:33:06.107Z,71.55
2018-10-17T06:35:35.423Z,70.03
2018-10-17T06:38:04.749Z,70.50
2018-10-17T06:40:34.754Z,71.50
2018-10-17T06:43:04.099Z,62.80
2018-10-17T06:45:33.430Z,63.47
2018-10-17T06:48:02.767Z,69.77
2018-10-17T06:50:32.070Z,66.02
2018-10-17T06:53:01.464Z,56.80
2018-10-17T06:55:30.820Z,62.50
2018-10-17T06:58:00.154Z,68.07
2018-10-17T07:00:29.501Z,63.93
2018-10-17T07:02:58.838Z,66.33
2018-10-17T07:05:28.174Z,70.60
2018-10-17T07:07:57.490Z,65.37
2018-10-17T07:10:27.578Z,67.40
2018-10-17T07:12:56.962Z,68.77
2018-10-17T07:15:26.356Z,66.03
2018-10-17T07:17:55.635Z,67.92
2018-10-17T07:20:24.970Z,69.33
2018-10-17T07:22:54.310Z,66.53
2018-10-17T07:25:23.605Z,64.87
2018-10-17T07:27:52.922Z,63.60
2018-10-17T07:30:22.257Z,69.83
2018-10-17T07:32:51.594Z,64.30
2018-10-17T07:35:20.964Z,63.52
2018-10-17T07:37:50.598Z,66.93
2018-10-17T07:40:19.974Z,66.70
2018-10-17T07:42:50.568Z,69.30
2018-10-17T07:45:19.907Z,64.32
2018-10-17T07:47:49.244Z,70.70
2018-10-17T07:50:18.573Z,72.73
2018-10-17T07:52:47.889Z,64.60
2018-10-17T07:55:17.190Z,67.43
2018-10-17T07:57:46.632Z,68.20
2018-10-17T08:00:15.972Z,70.50
2018-10-17T08:02:45.261Z,67.03
2018-10-17T08:05:14.586Z,68.70
2018-10-17T08:07:43.931Z,71.03
2018-10-17T08:10:13.265Z,72.50
2018-10-17T08:12:42.601Z,63.73
2018-10-17T08:15:11.927Z,64.63
2018-10-17T08:17:41.281Z,67.40
2018-10-17T08:20:12.107Z,64.95
2018-10-17T08:22:41.512Z,68.17
2018-10-17T08:25:12.118Z,69.00
2018-10-17T08:27:42.146Z,70.83
2018-10-17T08:30:11.902Z,65.83
2018-10-17T08:32:41.167Z,75.27
2018-10-17T08:35:10.528Z,69.60
2018-10-17T08:37:40.583Z,70.73
2018-10-17T08:40:09.447Z,74.50
2018-10-17T08:42:38.785Z,70.13
2018-10-17T08:45:08.207Z,66.23
2018-10-17T08:47:37.437Z,66.93
2018-10-17T08:50:11.033Z,64.67
2018-10-17T08:52:40.309Z,63.97
2018-10-17T08:55:09.649Z,63.27
2018-10-17T08:57:39.005Z,63.77
2018-10-17T09:00:08.736Z,65.17
2018-10-17T09:02:45.050Z,65.37
2018-10-17T09:05:14.388Z,61.90
2018-10-17T09:07:43.832Z,67.10
2018-10-17T09:10:13.067Z,63.77
2018-10-17T09:12:42.379Z,67.23
2018-10-17T09:15:11.827Z,61.00
2018-10-17T09:17:41.194Z,62.23
2018-10-17T09:20:11.271Z,61.30
2018-10-17T09:22:40.503Z,60.77
2018-10-17T09:25:09.910Z,61.63
2018-10-17T09:27:39.185Z,55.77
2018-10-17T09:30:10.884Z,60.95
2018-10-17T09:32:40.174Z,58.17
2018-10-17T09:35:10.808Z,57.77
2018-10-17T09:37:40.093Z,60.85
2018-10-17T09:40:11.320Z,54.27
2018-10-17T09:42:41.315Z,59.20
2018-10-17T09:45:11.217Z,56.97
2018-10-17T09:47:40.701Z,56.57
2018-10-17T09:50:10.764Z,57.37
2018-10-17T09:52:40.113Z,55.23
2018-10-17T09:55:09.804Z,56.57
2018-10-17T09:57:39.173Z,56.77
2018-10-17T10:00:14.142Z,56.00
2018-10-17T10:02:43.490Z,55.63
2018-10-17T10:05:12.795Z,60.17
2018-10-17T10:07:42.129Z,58.20
2018-10-17T10:10:11.563Z,60.43
2018-10-17T10:12:40.841Z,56.23
2018-10-17T10:15:10.178Z,58.02
2018-10-17T10:17:39.643Z,57.67
2018-10-17T10:20:08.895Z,57.40
2018-10-17T10:22:38.251Z,55.63
2018-10-17T10:25:08.659Z,55.03
2018-10-17T10:27:38.187Z,52.40
2018-10-17T10:30:07.691Z,55.33
2018-10-17T10:32:37.091Z,53.43
2018-10-17T10:35:06.652Z,53.07
2018-10-17T10:37:36.053Z,54.80
2018-10-17T10:40:08.006Z,48.68
2018-10-17T10:42:37.380Z,51.30
2018-10-17T10:45:07.584Z,53.27
2018-10-17T10:47:37.142Z,53.37
2018-10-17T10:50:08.229Z,52.37
2018-10-17T10:52:37.550Z,50.30
2018-10-17T10:55:07.027Z,49.33
2018-10-17T10:57:36.378Z,49.30
2018-10-17T11:00:06.109Z,48.35
2018-10-17T11:02:35.391Z,50.57
2018-10-17T11:05:06.278Z,46.83
2018-10-17T11:07:35.619Z,52.37
2018-10-17T11:10:06.339Z,50.83
2018-10-17T11:12:35.673Z,51.03
2018-10-17T11:15:07.862Z,48.63
2018-10-17T11:17:37.241Z,54.27
2018-10-17T11:20:07.566Z,46.33
2018-10-17T11:22:36.883Z,47.97
2018-10-17T11:25:07.817Z,48.55
2018-10-17T11:27:37.167Z,47.73
2018-10-17T11:30:08.711Z,47.53
2018-10-17T11:32:38.324Z,44.83
2018-10-17T11:35:09.473Z,47.27
2018-10-17T11:37:39.040Z,46.20
2018-10-17T11:40:09.205Z,44.53
2018-10-17T11:42:38.496Z,45.47
2018-10-17T11:45:08.008Z,43.73
2018-10-17T11:47:37.298Z,44.33
2018-10-17T11:50:08.682Z,41.00
2018-10-17T11:52:38.253Z,40.37
2018-10-17T11:55:07.890Z,39.35
2018-10-17T11:57:37.202Z,38.50
2018-10-17T12:00:09.262Z,36.20
2018-10-17T12:02:38.611Z,41.33
2018-10-17T12:05:11.716Z,40.33
2018-10-17T12:07:41.125Z,36.07
2018-10-17T12:10:10.455Z,41.42
2018-10-17T12:12:39.774Z,33.97
2018-10-17T12:15:12.379Z,33.40
2018-10-17T12:17:41.774Z,34.63
2018-10-17T12:20:13.062Z,34.85
2018-10-17T12:22:43.152Z,33.90
2018-10-17T12:25:13.020Z,33.83
2018-10-17T12:27:42.384Z,34.40
2018-10-17T12:30:14.260Z,33.70
2018-10-17T12:32:43.515Z,28.83
2018-10-17T12:35:13.146Z,29.52
2018-10-17T12:37:42.438Z,33.27
2018-10-17T12:40:12.132Z,28.57
2018-10-17T12:42:41.397Z,29.00
2018-10-17T12:45:11.867Z,26.90
2018-10-17T12:47:41.142Z,27.93
2018-10-17T12:50:10.653Z,24.10
2018-10-17T12:52:40.059Z,25.63
2018-10-17T12:55:09.807Z,24.40
2018-10-17T12:57:39.052Z,25.87
2018-10-17T13:00:10.174Z,25.87
2018-10-17T13:02:39.776Z,26.10
2018-10-17T13:05:10.052Z,27.40
2018-10-17T13:07:39.514Z,23.00
2018-10-17T13:10:10.252Z,22.83
2018-10-17T13:12:39.934Z,24.07
2018-10-17T13:15:10.461Z,22.77
2018-10-17T13:17:39.746Z,24.53
2018-10-17T13:20:09.061Z,23.20
2018-10-17T13:22:38.373Z,24.67
2018-10-17T13:25:08.008Z,24.90
2018-10-17T13:27:37.276Z,24.77
2018-10-17T13:30:07.511Z,26.60
2018-10-17T13:32:36.823Z,25.17
2018-10-17T13:35:06.853Z,23.17
2018-10-17T13:37:36.185Z,23.23
2018-10-17T13:40:06.653Z,29.27
2018-10-17T13:42:35.979Z,23.50
2018-10-17T13:45:07.032Z,23.38
2018-10-17T13:47:36.369Z,21.77
2018-10-17T13:50:06.763Z,23.40
2018-10-17T13:52:36.108Z,21.20
2018-10-17T13:55:05.642Z,21.30
2018-10-17T13:57:34.992Z,23.15
2018-10-17T14:00:04.527Z,23.67
2018-10-17T14:02:33.851Z,21.57
2018-10-17T14:05:03.193Z,20.47
2018-10-17T14:07:32.518Z,22.33
2018-10-17T14:10:01.854Z,21.83
2018-10-17T14:12:31.178Z,18.87
2018-10-17T14:15:00.556Z,20.40
2018-10-17T14:17:29.865Z,18.60
2018-10-17T14:19:59.226Z,21.37
2018-10-17T14:22:28.567Z,17.60
2018-10-17T14:24:57.902Z,17.70
2018-10-17T14:27:27.235Z,17.77
2018-10-17T14:29:59.451Z,21.17
2018-10-17T14:32:28.814Z,17.33
2018-10-17T14:34:58.180Z,17.53
2018-10-17T14:37:27.539Z,19.40
2018-10-17T14:39:57.619Z,19.97
2018-10-17T14:42:26.980Z,17.60
2018-10-17T14:44:59.502Z,16.10
2018-10-17T14:47:33.157Z,16.20
2018-10-17T14:50:05.491Z,16.00
2018-10-17T14:52:34.843Z,13.73
2018-10-17T14:55:05.061Z,17.13
2018-10-17T14:57:34.790Z,13.43
2018-10-17T15:00:04.241Z,14.30
2018-10-17T15:02:33.581Z,13.93
2018-10-17T15:05:03.288Z,12.80
2018-10-17T15:07:32.676Z,14.17
2018-10-17T15:10:02.080Z,15.40
2018-10-17T15:12:31.715Z,14.97
2018-10-17T15:15:01.119Z,16.20
2018-10-17T15:17:30.438Z,17.57
2018-10-17T15:19:59.778Z,15.57
2018-10-17T15:22:29.297Z,15.37
2018-10-17T15:24:58.754Z,13.17
2018-10-17T15:27:28.055Z,11.17
2018-10-17T15:29:57.467Z,13.27
2018-10-17T15:32:26.749Z,10.53
2018-10-17T15:34:56.063Z,13.13
2018-10-17T15:37:25.381Z,12.83
2018-10-17T15:39:54.957Z,11.73
2018-10-17T15:42:24.398Z,11.45
2018-10-17T15:44:53.748Z,14.33
2018-10-17T15:47:23.077Z,12.00
2018-10-17T15:49:52.433Z,11.57
2018-10-17T15:52:21.775Z,14.03
2018-10-17T15:54:51.130Z,14.58
2018-10-17T15:57:20.666Z,12.37
2018-10-17T15:59:49.992Z,13.77
2018-10-17T16:02:19.404Z,15.55
2018-10-17T16:04:48.717Z,12.97
2018-10-17T16:07:18.083Z,12.00
2018-10-17T16:09:47.402Z,14.87
2018-10-17T16:12:16.782Z,15.90
2018-10-17T16:14:46.102Z,12.43
2018-10-17T16:17:15.758Z,13.37
2018-10-17T16:19:45.046Z,11.93
2018-10-17T16:22:14.347Z,13.53
2018-10-17T16:24:43.666Z,12.73
2018-10-17T16:27:13.000Z,13.83
2018-10-17T16:29:42.350Z,15.50
2018-10-17T16:32:11.737Z,13.30
2018-10-17T16:34:41.040Z,12.60
2018-10-17T16:37:10.363Z,11.28
2018-10-17T16:39:39.923Z,12.03
2018-10-17T16:44:39.246Z,12.03
2018-10-17T16:47:08.754Z,8.90
2018-10-17T16:49:38.289Z,12.30
2018-10-17T16:52:07.802Z,14.00
2018-10-17T16:54:37.305Z,12.13
2018-10-17T16:57:08.637Z,12.90
2018-10-17T17:04:35.850Z,10.23
2018-10-17T17:07:06.516Z,12.22
2018-10-17T17:09:36.035Z,9.87
2018-10-17T17:12:07.024Z,11.43
2018-10-17T17:14:36.419Z,12.53
2018-10-17T17:17:06.295Z,13.17
2018-10-17T17:19:35.628Z,15.13
2018-10-17T17:22:06.378Z,12.60
2018-10-17T17:24:35.687Z,13.77
2018-10-17T17:27:06.444Z,13.40
2018-10-17T17:29:35.776Z,15.87
2018-10-17T17:32:07.011Z,12.20
2018-10-17T17:34:36.415Z,13.73
2018-10-17T17:37:06.296Z,12.30
2018-10-17T17:39:36.050Z,13.50
2018-10-17T17:42:06.441Z,11.50
2018-10-17T17:44:35.786Z,13.20
2018-10-17T17:47:06.520Z,13.43
2018-10-17T17:49:35.869Z,15.90
2018-10-17T17:52:06.208Z,12.53
2018-10-17T17:54:35.502Z,15.47
2018-10-17T17:57:06.946Z,18.03
2018-10-17T17:59:36.608Z,14.20
2018-10-17T18:02:06.536Z,12.60
2018-10-17T18:04:35.871Z,13.20
2018-10-17T18:07:06.554Z,14.00
2018-10-17T18:09:35.892Z,13.75
2018-10-17T18:12:06.326Z,17.45
2018-10-17T18:14:35.850Z,15.70
2018-10-17T18:17:06.382Z,14.33
2018-10-17T18:19:36.578Z,13.67
2018-10-17T18:22:06.839Z,14.98
2018-10-17T18:24:36.226Z,11.90
2018-10-17T18:27:07.262Z,13.90
2018-10-17T18:29:36.898Z,10.43
2018-10-17T18:32:06.873Z,13.28
2018-10-17T18:34:36.407Z,10.97
2018-10-17T18:37:06.719Z,12.47
2018-10-17T18:39:36.227Z,11.60
2018-10-17T18:42:06.899Z,10.15
2018-10-17T18:44:36.476Z,10.57
2018-10-17T18:47:06.654Z,11.68
2018-10-17T18:49:56.572Z,9.63
2018-10-17T18:52:26.375Z,9.30
2018-10-17T18:54:55.978Z,9.97
2018-10-17T18:57:25.506Z,10.10
2018-10-17T18:59:54.982Z,8.37
2018-10-17T19:02:24.497Z,9.30
2018-10-17T19:04:54.725Z,9.77
2018-10-17T19:07:24.405Z,10.75
2018-10-17T19:09:53.952Z,12.57
2018-10-17T19:12:24.656Z,10.57
2018-10-17T19:14:54.188Z,9.77
2018-10-17T19:17:23.828Z,8.93
2018-10-17T19:19:53.398Z,8.70
2018-10-17T19:22:22.890Z,10.58
2018-10-17T19:24:52.429Z,11.80
2018-10-17T19:27:22.003Z,10.10
2018-10-17T19:29:51.606Z,9.97
2018-10-17T19:32:21.115Z,8.40
2018-10-17T19:34:50.628Z,10.40
2018-10-17T19:37:20.220Z,8.23
2018-10-17T19:39:49.677Z,10.33
2018-10-17T19:42:19.147Z,14.47
2018-10-17T19:44:48.652Z,10.90
2018-10-17T19:47:18.043Z,8.93
2018-10-17T19:49:47.563Z,12.43
2018-10-17T19:52:17.199Z,12.75
2018-10-17T19:54:46.762Z,10.60
2018-10-17T19:57:16.368Z,10.70
2018-10-17T19:59:45.876Z,10.73
2018-10-17T20:02:15.483Z,13.17
2018-10-17T20:07:21.186Z,10.63
2018-10-17T20:09:50.758Z,11.30
2018-10-17T20:12:20.263Z,9.93
2018-10-17T20:14:49.768Z,12.07
2018-10-17T20:17:19.279Z,11.87
2018-10-17T20:19:48.781Z,11.70
2018-10-17T20:22:18.294Z,12.73
2018-10-17T20:24:47.937Z,10.20
2018-10-17T20:27:17.503Z,14.43
2018-10-17T20:29:47.182Z,10.53
2018-10-17T20:32:16.708Z,9.57
2018-10-17T20:34:46.233Z,11.90
2018-10-17T20:37:15.820Z,12.63
2018-10-17T20:39:45.227Z,11.07
2018-10-17T20:42:15.013Z,9.13
2018-10-17T20:44:44.416Z,12.13
2018-10-17T20:47:13.954Z,13.20
2018-10-17T20:49:43.560Z,10.33
2018-10-17T20:52:13.010Z,15.63
2018-10-17T20:54:42.459Z,15.10
2018-10-17T20:57:11.971Z,13.60
2018-10-17T20:59:41.566Z,12.07
2018-10-17T21:04:52.607Z,14.17
2018-10-17T21:07:22.463Z,14.10
2018-10-17T21:09:53.610Z,14.70
2018-10-17T21:12:23.119Z,17.15
2018-10-17T21:14:52.674Z,17.07
2018-10-17T21:17:22.173Z,12.80
2018-10-17T21:19:51.784Z,15.27
2018-10-17T21:22:21.549Z,10.82
2018-10-17T21:24:52.914Z,16.63
2018-10-17T21:27:22.516Z,13.87
2018-10-17T21:29:52.500Z,15.73
2018-10-17T21:32:22.034Z,16.03
2018-10-17T21:34:51.543Z,17.23
2018-10-17T21:37:21.253Z,15.23
2018-10-17T21:39:50.606Z,16.33
2018-10-17T21:42:19.930Z,17.02
2018-10-17T21:44:49.311Z,15.63
2018-10-17T21:47:18.779Z,16.97
2018-10-17T21:49:48.032Z,20.07
2018-10-17T21:52:17.412Z,17.00
2018-10-17T21:54:46.734Z,14.03
2018-10-17T21:57:16.062Z,18.32
2018-10-17T21:59:45.390Z,17.50
2018-10-17T22:02:14.809Z,15.72
2018-10-17T22:04:44.090Z,18.27
2018-10-17T22:07:13.422Z,16.30
2018-10-17T22:09:42.819Z,17.77
2018-10-17T22:12:12.138Z,19.60
2018-10-17T22:14:41.467Z,16.40
2018-10-17T22:17:10.789Z,21.68
2018-10-17T22:19:40.183Z,20.50
2018-10-17T22:22:09.467Z,21.93
2018-10-17T22:24:38.794Z,24.73
2018-10-17T22:27:08.091Z,18.07
2018-10-17T22:29:37.415Z,15.83
2018-10-17T22:32:06.934Z,17.53
2018-10-17T22:34:36.193Z,21.60
2018-10-17T22:37:06.795Z,20.87
2018-10-17T22:39:36.172Z,21.93
2018-10-17T22:42:06.365Z,18.98
2018-10-17T22:44:35.682Z,22.30
2018-10-17T22:47:06.719Z,22.45
2018-10-17T22:49:36.083Z,21.90
2018-10-17T22:52:06.065Z,27.00
2018-10-17T22:54:35.399Z,23.27
2018-10-17T22:57:04.715Z,26.37
2018-10-17T22:59:34.013Z,23.57
2018-10-17T23:02:11.902Z,24.87
2018-10-17T23:04:48.228Z,27.27
2018-10-17T23:07:24.729Z,23.03
2018-10-17T23:10:01.981Z,25.77
2018-10-17T23:12:39.114Z,26.20
2018-10-17T23:15:21.241Z,24.57
2018-10-17T23:17:59.273Z,23.87
2018-10-17T23:20:32.929Z,27.77
2018-10-17T23:23:09.317Z,25.47
2018-10-17T23:25:45.831Z,26.00
2018-10-17T23:28:20.865Z,29.15
2018-10-17T23:30:56.756Z,31.13
2018-10-17T23:33:34.983Z,28.50
2018-10-17T23:36:11.090Z,27.50
2018-10-17T23:38:45.755Z,29.97
2018-10-17T23:41:22.488Z,25.25
2018-10-17T23:43:59.233Z,29.97
2018-10-17T23:46:36.935Z,21.70
2018-10-17T23:49:12.950Z,24.60
2018-10-17T23:51:49.151Z,30.57
2018-10-17T23:54:24.973Z,32.97
2018-10-17T23:57:00.320Z,29.50
2018-10-17T23:59:38.294Z,33.70
